Time;durP1;ratioP1;P1;durP2;ratioP2;P2;SDS_P1;SDS_P2;PMS_P1;PMS_P2;Temp;Humidity;BMP_temperature;BMP_pressure;BME280_temperature;BME280_humidity;BME280_pressure;Samples;Min_cycle;Max_cycle;Signal;HPM_P1;HPM_P2
2023/03/22 00:01:29;;;;;;;2.80;1.90;;;9.70;99.90;;;;;;5066094;28;20048;-49
2023/03/22 00:03:57;;;;;;;5.75;1.85;;;9.80;99.90;;;;;;5070344;28;20051;-50
2023/03/22 00:06:24;;;;;;;5.05;2.13;;;9.70;99.90;;;;;;5070770;28;20044;-51
2023/03/22 00:08:52;;;;;;;;;;;9.70;99.90;;;;;;5070677;28;20067;-49
2023/03/22 00:11:20;;;;;;;6.18;2.03;;;9.70;99.90;;;;;;5058075;28;19920;-49
2023/03/22 00:13:47;;;;;;;7.78;2.05;;;9.70;99.90;;;;;;5071216;28;20052;-50
2023/03/22 00:16:14;;;;;;;7.25;2.65;;;9.70;99.90;;;;;;5070813;28;20040;-51
2023/03/22 00:18:41;;;;;;;5.82;3.10;;;9.70;99.90;;;;;;5070328;28;20094;-51
2023/03/22 00:21:13;;;;;;;5.07;3.13;;;9.70;99.90;;;;;;5070766;28;20044;-49
2023/03/22 00:23:40;;;;;;;7.00;2.80;;;9.60;99.90;;;;;;5069787;28;20040;-49
2023/03/22 00:26:09;;;;;;;8.70;2.83;;;9.60;99.90;;;;;;5070482;28;20086;-51
2023/03/22 00:28:37;;;;;;;8.75;2.65;;;9.40;99.90;;;;;;5070798;28;20507;-50
2023/03/22 00:31:05;;;;;;;7.72;2.60;;;9.40;99.90;;;;;;5052231;28;20097;-50
2023/03/22 00:33:32;;;;;;;6.45;2.33;;;9.30;99.90;;;;;;5070962;28;20520;-49
2023/03/22 00:36:10;;;;;;;9.93;2.33;;;9.20;99.90;;;;;;5070714;28;20048;-49
2023/03/22 00:38:37;;;;;;;;;;;9.20;99.90;;;;;;5050975;28;20049;-49
2023/03/22 00:41:13;;;;;;;5.90;2.10;;;9.10;99.90;;;;;;5070616;28;19926;-49
2023/03/22 00:43:40;;;;;;;5.57;1.88;;;9.10;99.90;;;;;;5052962;28;20090;-50
2023/03/22 00:46:07;;;;;;;;;;;9.10;99.90;;;;;;5070787;28;20048;-48
2023/03/22 00:48:34;;;;;;;4.28;1.92;;;9.10;99.90;;;;;;5069053;28;19920;-50
2023/03/22 00:51:01;;;;;;;2.63;1.50;;;9.00;99.90;;;;;;5070327;28;20044;-49
2023/03/22 00:53:35;;;;;;;5.00;1.70;;;9.00;99.90;;;;;;5052524;28;20064;-49
2023/03/22 00:56:04;;;;;;;3.42;1.60;;;9.00;99.90;;;;;;5058528;28;20611;-50
2023/03/22 00:58:40;;;;;;;4.20;1.80;;;9.00;99.90;;;;;;5066741;28;20067;-50
2023/03/22 01:01:07;;;;;;;6.15;1.65;;;9.00;99.90;;;;;;5072284;28;20040;-51
2023/03/22 01:03:34;;;;;;;6.05;1.50;;;9.00;99.90;;;;;;5068499;28;20048;-48
2023/03/22 01:06:01;;;;;;;5.75;1.20;;;9.00;99.90;;;;;;5075802;28;20048;-50
2023/03/22 01:08:31;;;;;;;5.07;1.48;;;9.00;99.90;;;;;;5075259;28;20066;-49
2023/03/22 01:11:00;;;;;;;4.63;1.77;;;9.00;99.90;;;;;;5067819;28;20131;-50
2023/03/22 01:13:27;;;;;;;6.28;1.35;;;8.90;99.90;;;;;;5114319;22;20048;-49
2023/03/22 01:15:54;;;;;;;6.30;1.50;;;8.90;99.90;;;;;;5091556;28;20055;-49
2023/03/22 01:18:22;;;;;;;3.70;1.33;;;8.90;99.90;;;;;;5095978;28;20075;-50
2023/03/22 01:20:48;;;;;;;7.20;2.03;;;8.90;99.90;;;;;;5099681;28;20089;-51
2023/03/22 01:23:16;;;;;;;3.38;1.50;;;8.80;99.90;;;;;;5099382;28;20163;-51
2023/03/22 01:25:43;;;;;;;;;;;8.80;99.90;;;;;;5076111;28;20448;-53
2023/03/22 01:28:09;;;;;;;3.85;1.40;;;8.80;99.90;;;;;;5074331;28;19925;-49
2023/03/22 01:30:39;;;;;;;2.80;1.50;;;8.70;99.90;;;;;;5060454;28;20110;-53
2023/03/22 01:33:07;;;;;;;5.45;1.40;;;8.80;99.90;;;;;;5092589;28;20090;-50
2023/03/22 01:35:35;;;;;;;7.80;2.97;;;8.80;99.90;;;;;;5075802;28;20051;-50
2023/03/22 01:38:03;;;;;;;6.53;2.35;;;8.80;99.90;;;;;;5076230;28;20070;-51
2023/03/22 01:40:33;;;;;;;4.47;1.65;;;8.70;99.90;;;;;;5069814;28;20046;-50
2023/03/22 01:43:00;;;;;;;4.35;1.33;;;8.70;99.90;;;;;;5055690;28;20044;-49
2023/03/22 01:45:35;;;;;;;5.35;1.38;;;8.70;99.90;;;;;;5058671;28;20040;-49
2023/03/22 01:48:14;;;;;;;2.03;1.38;;;8.70;99.90;;;;;;5075268;28;20040;-51
2023/03/22 01:50:46;;;;;;;4.63;1.27;;;8.70;99.90;;;;;;5075336;28;20040;-50
2023/03/22 01:53:17;;;;;;;7.75;1.85;;;8.70;99.90;;;;;;5070052;28;20037;-54
2023/03/22 01:55:45;;;;;;;4.00;1.70;;;8.60;99.90;;;;;;5055567;28;20044;-53
2023/03/22 01:58:19;;;;;;;4.47;2.30;;;8.60;99.90;;;;;;5071549;28;20045;-49
2023/03/22 02:00:51;;;;;;;6.53;3.15;;;8.60;99.90;;;;;;5055373;28;20074;-50
2023/03/22 02:04:02;;;;;;;5.47;3.13;;;8.60;99.90;;;;;;5071646;28;20056;-50
2023/03/22 02:06:31;;;;;;;10.05;4.15;;;8.60;99.90;;;;;;5054224;28;20432;-50
2023/03/22 02:09:11;;;;;;;8.48;3.97;;;8.50;99.90;;;;;;5054515;28;20043;-51
2023/03/22 02:11:51;;;;;;;7.95;4.22;;;8.50;99.90;;;;;;5054197;28;20522;-51
2023/03/22 02:14:47;;;;;;;5.97;3.67;;;8.50;99.90;;;;;;5074658;28;20052;-51
2023/03/22 02:18:20;;;;;;;6.68;3.88;;;8.50;99.90;;;;;;5084616;28;20055;-50
2023/03/22 02:21:13;;;;;;;6.32;4.05;;;8.50;99.90;;;;;;5071055;28;20477;-51
2023/03/22 02:23:46;;;;;;;6.55;4.30;;;8.50;99.90;;;;;;5059046;28;20048;-49
2023/03/22 02:26:24;;;;;;;7.95;3.88;;;8.40;99.90;;;;;;5071296;28;20052;-51
2023/03/22 02:28:59;;;;;;;8.32;3.85;;;8.40;99.90;;;;;;5071127;28;20493;-52
2023/03/22 02:31:38;;;;;;;7.18;3.95;;;8.40;99.90;;;;;;5080386;28;20182;-53
2023/03/22 02:34:24;;;;;;;8.27;4.32;;;8.40;99.90;;;;;;5071414;28;20051;-49
2023/03/22 02:37:35;;;;;;;6.43;3.92;;;8.40;99.90;;;;;;5070991;28;20044;-49
2023/03/22 02:40:10;;;;;;;5.88;3.80;;;8.40;99.90;;;;;;5075469;28;20040;-52
2023/03/22 02:42:46;;;;;;;8.90;4.25;;;8.40;99.90;;;;;;5073891;28;20467;-51
2023/03/22 02:45:21;;;;;;;10.57;4.32;;;8.50;99.90;;;;;;5074362;28;20135;-49
2023/03/22 02:48:07;;;;;;;6.60;3.33;;;8.40;99.90;;;;;;5073561;28;20560;-50
2023/03/22 02:50:55;;;;;;;8.40;4.40;;;8.40;99.90;;;;;;5075503;28;20040;-53
2023/03/22 02:53:29;;;;;;;8.32;3.88;;;8.40;99.90;;;;;;5040984;28;20051;-53
2023/03/22 02:56:01;;;;;;;7.43;3.72;;;8.40;99.90;;;;;;5072651;28;20122;-53
2023/03/22 02:58:44;;;;;;;5.43;3.70;;;8.40;99.90;;;;;;5076462;28;20036;-53
2023/03/22 03:01:24;;;;;;;7.78;3.35;;;8.50;99.90;;;;;;5073943;28;20055;-52
2023/03/22 03:03:55;;;;;;;7.78;3.42;;;8.50;99.90;;;;;;5073092;28;20054;-52
2023/03/22 03:06:27;;;;;;;8.10;3.20;;;8.50;99.90;;;;;;5090679;28;20032;-52
2023/03/22 03:08:56;;;;;;;4.78;2.97;;;8.50;99.90;;;;;;5087297;28;20031;-50
2023/03/22 03:11:24;;;;;;;9.43;3.20;;;8.50;99.90;;;;;;5068543;28;20420;-51
2023/03/22 03:13:51;;;;;;;4.25;2.97;;;8.50;99.90;;;;;;5071772;28;20037;-50
2023/03/22 03:16:21;;;;;;;4.40;2.53;;;8.50;99.90;;;;;;5068618;28;20515;-53
2023/03/22 03:19:16;;;;;;;5.80;3.13;;;8.50;99.90;;;;;;5072377;28;20043;-50
2023/03/22 03:21:55;;;;;;;4.20;2.80;;;8.50;99.90;;;;;;5089352;28;20098;-52
2023/03/22 03:24:44;;;;;;;6.18;2.63;;;8.50;99.90;;;;;;5091134;28;20110;-49
2023/03/22 03:27:21;;;;;;;6.40;2.80;;;8.40;99.90;;;;;;5089893;28;20090;-52
2023/03/22 03:29:57;;;;;;;4.83;2.50;;;8.40;99.90;;;;;;5090013;28;20460;-51
2023/03/22 03:32:34;;;;;;;3.10;2.08;;;8.40;99.90;;;;;;5068991;28;20053;-51
2023/03/22 03:35:24;;;;;;;4.15;2.47;;;8.40;99.90;;;;;;5090038;28;20040;-51
2023/03/22 03:37:57;;;;;;;5.30;2.33;;;8.50;99.90;;;;;;5072548;28;20044;-51
2023/03/22 03:40:35;;;;;;;4.30;2.05;;;8.50;99.90;;;;;;5077229;28;20044;-52
2023/03/22 03:43:05;;;;;;;8.65;3.05;;;8.50;99.90;;;;;;5069058;28;20048;-50
2023/03/22 03:45:34;;;;;;;6.65;2.95;;;8.50;99.90;;;;;;5070410;28;20094;-52
2023/03/22 03:48:05;;;;;;;3.45;2.40;;;8.40;99.90;;;;;;5070049;28;20158;-51
2023/03/22 03:50:32;;;;;;;6.85;2.35;;;8.20;99.90;;;;;;5066133;28;20046;-50
2023/03/22 03:52:59;;;;;;;5.65;2.05;;;8.10;99.90;;;;;;5072348;28;20105;-51
2023/03/22 03:55:26;;;;;;;5.32;2.17;;;8.10;99.90;;;;;;5088826;28;20050;-51
2023/03/22 03:57:53;;;;;;;6.32;2.30;;;8.10;99.90;;;;;;5074986;28;20040;-51
2023/03/22 04:00:20;;;;;;;4.40;2.00;;;8.10;99.90;;;;;;5076597;28;20098;-50
2023/03/22 04:03:05;;;;;;;9.98;1.80;;;8.00;99.90;;;;;;5070536;28;20059;-51
2023/03/22 04:05:43;;;;;;;5.72;1.88;;;8.00;99.90;;;;;;5056732;28;20041;-51
2023/03/22 04:08:10;;;;;;;3.95;2.22;;;7.90;99.90;;;;;;5064953;28;20047;-52
2023/03/22 04:10:36;;;;;;;4.22;1.60;;;7.90;99.90;;;;;;5069372;28;20041;-49
2023/03/22 04:13:03;;;;;;;7.85;2.42;;;7.90;99.90;;;;;;5069298;28;20056;-50
2023/03/22 04:15:31;;;;;;;14.25;3.28;;;7.90;99.90;;;;;;5065280;28;20047;-50
2023/03/22 04:18:01;;;;;;;7.00;2.85;;;7.80;99.90;;;;;;5060041;28;20131;-50
2023/03/22 04:20:30;;;;;;;6.45;3.47;;;7.90;99.90;;;;;;5062926;28;20051;-50
2023/03/22 04:22:57;;;;;;;;;;;7.80;99.90;;;;;;5069702;28;20048;-52
2023/03/22 04:25:29;;;;;;;3.67;1.65;;;7.80;99.90;;;;;;5067421;28;19927;-50
2023/03/22 04:28:03;;;;;;;2.63;1.50;;;7.70;99.90;;;;;;5058821;28;20044;-53
2023/03/22 04:30:34;;;;;;;4.97;2.22;;;7.60;99.90;;;;;;5054917;28;20042;-50
2023/03/22 04:33:21;;;;;;;7.30;2.22;;;7.60;99.90;;;;;;5089471;28;20428;-53
2023/03/22 04:36:09;;;;;;;3.00;2.13;;;7.60;99.90;;;;;;5067592;28;20560;-51
2023/03/22 04:38:47;;;;;;;7.57;2.00;;;7.50;99.90;;;;;;5071655;28;20047;-52
2023/03/22 04:41:19;;;;;;;5.07;2.33;;;7.50;99.90;;;;;;5058665;28;20527;-51
2023/03/22 04:43:50;;;;;;;4.70;2.10;;;7.50;99.90;;;;;;5075834;28;20060;-53
2023/03/22 04:46:20;;;;;;;5.40;2.20;;;7.40;99.90;;;;;;5075997;28;20047;-51
2023/03/22 04:48:52;;;;;;;6.95;1.90;;;7.40;99.90;;;;;;5068072;28;20052;-50
2023/03/22 04:51:19;;;;;;;4.82;2.30;;;7.30;99.90;;;;;;5063765;28;20044;-50
2023/03/22 04:54:05;;;;;;;8.98;2.17;;;7.10;99.90;;;;;;5066693;28;20040;-52
2023/03/22 04:56:32;;;;;;;;;;;7.00;99.90;;;;;;5062581;28;20041;-50
2023/03/22 04:58:59;;;;;;;4.55;1.73;;;7.00;99.90;;;;;;5071500;28;19974;-53
2023/03/22 05:01:26;;;;;;;;;;;7.00;99.90;;;;;;5071845;28;20051;-50
2023/03/22 05:04:03;;;;;;;1.88;1.50;;;7.00;99.90;;;;;;5082612;28;20269;-54
2023/03/22 05:06:33;;;;;;;2.95;2.08;;;6.90;99.90;;;;;;5071269;28;20111;-49
2023/03/22 05:09:07;;;;;;;5.45;2.20;;;7.00;99.90;;;;;;5079588;28;20135;-50
2023/03/22 05:11:35;;;;;;;6.30;2.28;;;6.90;99.90;;;;;;5085995;28;20044;-49
2023/03/22 05:14:34;;;;;;;4.57;2.28;;;6.90;99.90;;;;;;5088814;28;20163;-51
2023/03/22 05:17:02;;;;;;;5.75;2.55;;;6.90;99.90;;;;;;5062137;28;20500;-53
2023/03/22 05:19:33;;;;;;;7.00;1.75;;;6.90;99.90;;;;;;5069099;28;20041;-50
2023/03/22 05:22:00;;;;;;;;;;;6.90;99.90;;;;;;5089873;28;20044;-51
2023/03/22 05:24:53;;;;;;;9.00;4.85;;;6.80;99.90;;;;;;5084760;28;20012;-50
2023/03/22 05:27:29;;;;;;;8.52;4.88;;;6.90;99.90;;;;;;5088666;28;20051;-49
2023/03/22 05:30:05;;;;;;;10.15;4.95;;;6.90;99.90;;;;;;5071937;28;20052;-50
2023/03/22 05:32:46;;;;;;;11.38;4.93;;;6.90;99.90;;;;;;5087455;28;20408;-50
2023/03/22 05:35:12;;;;;;;8.63;3.88;;;7.00;99.90;;;;;;5074179;28;20048;-49
2023/03/22 05:37:44;;;;;;;9.10;4.15;;;7.00;99.90;;;;;;5073974;28;20496;-50
2023/03/22 05:40:13;;;;;;;9.13;3.97;;;6.90;99.90;;;;;;5065119;28;20412;-49
2023/03/22 05:42:44;;;;;;;7.85;4.38;;;6.90;99.90;;;;;;5060183;28;20076;-50
2023/03/22 05:45:19;;;;;;;9.00;4.18;;;6.90;99.90;;;;;;5076355;28;20060;-50
2023/03/22 05:47:53;;;;;;;9.18;3.97;;;7.00;99.90;;;;;;5065767;28;20091;-49
2023/03/22 05:50:21;;;;;;;6.05;3.47;;;7.00;99.90;;;;;;5061714;28;20495;-50
2023/03/22 05:52:49;;;;;;;5.03;3.08;;;7.00;99.90;;;;;;5063034;28;20044;-51
2023/03/22 05:55:35;;;;;;;11.52;5.63;;;7.00;99.90;;;;;;5089179;28;20050;-50
2023/03/22 05:58:04;;;;;;;11.82;4.43;;;7.10;99.90;;;;;;5061871;28;20045;-52
2023/03/22 06:00:34;;;;;;;7.30;4.45;;;7.10;99.90;;;;;;5057307;28;20078;-52
2023/03/22 06:03:27;;;;;;;11.85;4.07;;;7.10;99.90;;;;;;5041018;28;20132;-50
2023/03/22 06:06:09;;;;;;;10.18;4.57;;;7.10;99.90;;;;;;5071146;28;20053;-52
2023/03/22 06:08:46;;;;;;;6.78;4.10;;;7.10;99.90;;;;;;5071303;28;20066;-52
2023/03/22 06:11:12;;;;;;;11.20;4.40;;;7.10;99.90;;;;;;5085878;28;20044;-51
2023/03/22 06:13:39;;;;;;;10.77;4.50;;;7.00;99.90;;;;;;5071058;28;20044;-52
2023/03/22 06:16:35;;;;;;;12.52;4.80;;;7.00;99.90;;;;;;5070547;28;20052;-56
2023/03/22 06:19:02;;;;;;;12.25;5.45;;;7.10;99.90;;;;;;5064147;28;20078;-52
2023/03/22 06:21:29;;;;;;;14.30;4.97;;;7.10;99.90;;;;;;5073523;28;20044;-53
2023/03/22 06:23:56;;;;;;;10.18;4.40;;;7.10;99.90;;;;;;5092943;28;20122;-51
2023/03/22 06:26:23;;;;;;;;;;;7.10;99.90;;;;;;5074982;28;20416;-52
2023/03/22 06:28:50;;;;;;;7.65;5.43;;;7.10;99.90;;;;;;5089649;28;19936;-49
2023/03/22 06:31:17;;;;;;;9.40;4.80;;;7.20;99.90;;;;;;5079774;28;20041;-50
2023/03/22 06:33:51;;;;;;;9.45;5.00;;;7.20;99.90;;;;;;5054076;28;20571;-53
2023/03/22 06:36:26;;;;;;;10.20;4.90;;;7.10;99.90;;;;;;5053934;28;20045;-51
2023/03/22 06:39:12;;;;;;;12.32;4.82;;;7.20;99.90;;;;;;5078904;28;20060;-52
2023/03/22 06:41:42;;;;;;;11.57;4.20;;;7.20;99.90;;;;;;5070798;28;20598;-51
2023/03/22 06:44:09;;;;;;;9.88;4.65;;;7.20;99.90;;;;;;5069820;28;20053;-50
2023/03/22 06:46:51;;;;;;;13.18;6.18;;;7.20;99.90;;;;;;5079595;28;20490;-49
2023/03/22 06:49:35;;;;;;;13.18;5.45;;;7.30;99.90;;;;;;5079276;28;20102;-51
2023/03/22 06:52:03;;;;;;;13.60;5.25;;;7.40;99.90;;;;;;5066336;28;20093;-50
2023/03/22 06:54:30;;;;;;;9.70;5.28;;;7.60;99.90;;;;;;5063430;28;20040;-50
2023/03/22 06:56:58;;;;;;;7.55;4.88;;;7.70;99.90;;;;;;5070124;28;20106;-50
2023/03/22 06:59:24;;;;;;;8.23;3.30;;;7.90;99.90;;;;;;5071627;28;20040;-49
2023/03/22 07:01:51;;;;;;;11.43;3.75;;;8.10;99.90;;;;;;5065481;28;20528;-51
2023/03/22 07:04:18;;;;;;;7.18;3.92;;;8.30;99.90;;;;;;5064969;28;20509;-54
2023/03/22 07:06:47;;;;;;;10.70;3.45;;;8.40;99.90;;;;;;5073212;28;20040;-51
2023/03/22 07:09:15;;;;;;;5.28;3.67;;;8.60;99.90;;;;;;5090974;28;20086;-50
2023/03/22 07:12:12;;;;;;;6.68;3.80;;;8.70;99.90;;;;;;5053070;28;20135;-56
2023/03/22 07:14:39;;;;;;;9.15;4.07;;;8.90;99.90;;;;;;5073645;28;20332;-52
2023/03/22 07:17:22;;;;;;;5.28;2.90;;;8.90;99.90;;;;;;5051305;28;20048;-51
2023/03/22 07:19:49;;;;;;;8.05;3.50;;;9.00;99.90;;;;;;5082035;28;20040;-54
2023/03/22 07:22:15;;;;;;;6.43;3.13;;;9.00;99.90;;;;;;5070038;28;20043;-52
2023/03/22 07:24:44;;;;;;;5.47;3.42;;;9.10;99.90;;;;;;5075686;28;20039;-56
2023/03/22 07:27:24;;;;;;;7.38;3.13;;;9.20;99.90;;;;;;5081863;28;20134;-56
2023/03/22 07:29:51;;;;;;;11.05;2.85;;;9.40;99.90;;;;;;5072497;28;20416;-55
2023/03/22 07:32:19;;;;;;;5.90;3.10;;;9.50;99.90;;;;;;5072144;28;20075;-55
2023/03/22 07:34:56;;;;;;;8.18;3.10;;;9.50;99.90;;;;;;5088294;28;20040;-55
2023/03/22 07:37:23;;;;;;;6.30;3.28;;;9.50;99.90;;;;;;5071221;28;20492;-57
2023/03/22 07:39:49;;;;;;;9.75;4.00;;;9.60;99.90;;;;;;5089855;28;20040;-55
2023/03/22 07:42:16;;;;;;;9.80;3.40;;;9.70;99.90;;;;;;5090258;28;20093;-55
2023/03/22 07:45:17;;;;;;;8.05;3.88;;;9.90;99.90;;;;;;5072999;28;20043;-54
2023/03/22 07:47:44;;;;;;;7.28;3.90;;;10.00;99.90;;;;;;5091516;28;20044;-54
2023/03/22 07:50:17;;;;;;;7.47;3.20;;;10.10;99.90;;;;;;5090996;28;20048;-55
2023/03/22 07:52:47;;;;;;;7.07;3.88;;;10.20;99.90;;;;;;5107190;28;20071;-55
2023/03/22 07:55:14;;;;;;;5.00;3.05;;;10.10;99.90;;;;;;5102635;28;20046;-54
2023/03/22 07:57:42;;;;;;;5.63;3.35;;;10.20;99.90;;;;;;5073388;28;20086;-56
2023/03/22 08:00:12;;;;;;;6.30;3.40;;;10.20;99.90;;;;;;5079984;28;20048;-56
2023/03/22 08:02:44;;;;;;;5.80;3.33;;;10.30;99.90;;;;;;5090152;28;20054;-55
2023/03/22 08:05:22;;;;;;;3.75;2.92;;;10.40;99.90;;;;;;5072045;28;20052;-51
2023/03/22 08:07:56;;;;;;;6.53;3.05;;;10.50;99.90;;;;;;5056302;28;20051;-56
2023/03/22 08:10:22;;;;;;;6.00;3.30;;;10.60;99.90;;;;;;5085920;28;20079;-53
2023/03/22 08:12:49;;;;;;;10.52;4.05;;;10.70;99.90;;;;;;5086531;28;20040;-56
2023/03/22 08:15:21;;;;;;;6.60;3.80;;;11.00;99.90;;;;;;5076419;28;20047;-55
2023/03/22 08:17:48;;;;;;;7.90;3.42;;;11.10;99.90;;;;;;5080285;28;20078;-54
2023/03/22 08:20:26;;;;;;;;;;;11.20;99.90;;;;;;5076430;28;20079;-56
2023/03/22 08:22:57;;;;;;;6.63;3.38;;;11.30;99.90;;;;;;5076191;28;19920;-55
2023/03/22 08:25:42;;;;;;;6.68;3.70;;;11.30;99.90;;;;;;5077249;28;20106;-55
2023/03/22 08:28:12;;;;;;;9.07;3.97;;;11.40;99.90;;;;;;5095193;28;20067;-54
2023/03/22 08:30:39;;;;;;;;;;;11.40;99.90;;;;;;5079893;28;20071;-54
2023/03/22 08:33:07;;;;;;;6.93;3.22;;;11.40;99.90;;;;;;5079503;28;19920;-54
2023/03/22 08:35:34;;;;;;;6.13;3.20;;;11.50;99.90;;;;;;5073203;28;20450;-55
2023/03/22 08:38:01;;;;;;;7.55;3.03;;;11.60;99.90;;;;;;5095022;28;20044;-56
2023/03/22 08:40:36;;;;;;;5.30;3.10;;;11.70;99.90;;;;;;5075945;28;20504;-53
2023/03/22 08:43:03;;;;;;;10.25;3.65;;;11.90;99.90;;;;;;5059127;28;20045;-54
2023/03/22 08:45:30;;;;;;;8.30;3.97;;;11.90;99.90;;;;;;5076274;28;20041;-56
2023/03/22 08:48:04;;;;;;;9.43;3.35;;;12.00;99.90;;;;;;5075927;28;20556;-54
2023/03/22 08:50:43;;;;;;;7.38;3.35;;;12.20;99.90;;;;;;5076071;28;20420;-55
2023/03/22 08:53:19;;;;;;;5.60;3.05;;;12.30;99.90;;;;;;5076050;28;20036;-52
2023/03/22 08:55:56;;;;;;;4.28;3.28;;;12.50;99.90;;;;;;5078093;28;20044;-55
2023/03/22 08:58:46;;;;;;;5.45;3.65;;;12.60;99.90;;;;;;5096098;28;20102;-55
2023/03/22 09:01:39;;;;;;;8.85;3.10;;;12.60;99.90;;;;;;5093054;28;20114;-54
2023/03/22 09:04:08;;;;;;;6.38;3.47;;;12.60;99.90;;;;;;5092735;28;20044;-53
2023/03/22 09:06:36;;;;;;;3.75;2.90;;;12.70;99.90;;;;;;5076873;28;20036;-54
2023/03/22 09:09:03;;;;;;;7.95;3.20;;;12.70;99.90;;;;;;5075531;28;20171;-55
2023/03/22 09:11:31;;;;;;;6.63;2.83;;;12.90;99.90;;;;;;5088842;28;20530;-56
2023/03/22 09:13:58;;;;;;;5.25;3.15;;;13.00;99.90;;;;;;5078708;28;20135;-56
2023/03/22 09:16:24;;;;;;;4.57;2.78;;;13.20;99.90;;;;;;5097356;28;20109;-55
2023/03/22 09:18:51;;;;;;;5.05;3.45;;;13.30;99.90;;;;;;5078244;28;20047;-57
2023/03/22 09:21:20;;;;;;;4.32;3.30;;;13.40;99.90;;;;;;5087189;28;20516;-55
2023/03/22 09:24:10;;;;;;;4.40;2.85;;;13.20;99.90;;;;;;5093687;28;20566;-56
2023/03/22 09:26:43;;;;;;;7.75;2.75;;;13.20;99.90;;;;;;5075513;28;20131;-56
2023/03/22 09:29:09;;;;;;;4.07;3.05;;;13.30;99.90;;;;;;5092601;28;20048;-56
2023/03/22 09:31:38;;;;;;;2.95;2.65;;;13.30;99.90;;;;;;5103135;28;20054;-56
2023/03/22 09:34:15;;;;;;;5.05;2.67;;;13.50;99.90;;;;;;5075503;28;20042;-56
2023/03/22 09:36:41;;;;;;;;;;;13.60;99.90;;;;;;5076332;28;20044;-56
2023/03/22 09:39:09;;;;;;;7.45;3.42;;;13.70;99.90;;;;;;5089991;28;19921;-56
2023/03/22 09:41:44;;;;;;;2.80;2.50;;;13.90;99.90;;;;;;5075638;28;20399;-56
2023/03/22 09:44:25;;;;;;;4.45;2.70;;;14.40;99.90;;;;;;5068961;28;20056;-55
2023/03/22 09:46:55;;;;;;;7.22;3.97;;;14.00;99.90;;;;;;5075548;28;20040;-55
2023/03/22 09:49:27;;;;;;;9.35;3.13;;;14.00;99.90;;;;;;5092011;28;20081;-55
2023/03/22 09:51:54;;;;;;;8.88;2.65;;;14.30;99.90;;;;;;5093604;28;20040;-55
2023/03/22 09:54:34;;;;;;;3.90;2.90;;;14.40;99.90;;;;;;5092213;28;20089;-55
2023/03/22 09:57:11;;;;;;;8.30;3.08;;;14.60;99.90;;;;;;5093553;28;20040;-55
2023/03/22 09:59:55;;;;;;;8.50;3.33;;;14.60;99.90;;;;;;5092911;28;20048;-56
2023/03/22 10:02:31;;;;;;;5.57;3.17;;;14.80;99.90;;;;;;5091464;28;20050;-55
2023/03/22 10:05:21;;;;;;;6.18;4.70;;;14.90;99.90;;;;;;5093177;28;20044;-55
2023/03/22 10:08:10;;;;;;;8.68;4.50;;;14.70;99.90;;;;;;5093198;28;20048;-55
2023/03/22 10:10:40;;;;;;;;;;;14.80;99.90;;;;;;5093608;28;20089;-56
2023/03/22 10:13:15;;;;;;;6.80;3.90;;;15.00;99.90;;;;;;5091614;28;19920;-56
2023/03/22 10:15:54;;;;;;;8.13;5.45;;;15.00;99.90;;;;;;5092692;28;20071;-56
2023/03/22 10:18:42;;;;;;;10.05;5.18;;;15.20;99.90;;;;;;5085106;28;20053;-55
2023/03/22 10:21:11;;;;;;;6.30;4.05;;;15.20;99.90;;;;;;5072930;28;20052;-56
2023/03/22 10:23:54;;;;;;;7.00;4.72;;;15.20;99.90;;;;;;5073009;28;20421;-53
2023/03/22 10:26:38;;;;;;;7.18;3.90;;;15.40;99.90;;;;;;5084956;28;20081;-54
2023/03/22 10:29:40;;;;;;;6.68;3.72;;;15.60;99.90;;;;;;5084817;28;20044;-56
2023/03/22 10:32:20;;;;;;;5.10;3.72;;;15.50;99.90;;;;;;5091735;28;20048;-55
2023/03/22 10:34:48;;;;;;;7.30;3.63;;;15.50;99.90;;;;;;5092691;28;20071;-55
2023/03/22 10:37:23;;;;;;;6.72;3.70;;;15.70;99.90;;;;;;5083361;28;20101;-56
2023/03/22 10:39:54;;;;;;;4.60;3.30;;;15.90;99.90;;;;;;5092467;28;20048;-56
2023/03/22 10:42:27;;;;;;;8.07;3.95;;;16.00;99.90;;;;;;5093016;28;20040;-56
2023/03/22 10:45:02;;;;;;;7.40;3.70;;;16.10;99.90;;;;;;5092651;28;20344;-58
2023/03/22 10:47:34;;;;;;;10.32;4.13;;;16.20;99.90;;;;;;5085690;28;20086;-55
2023/03/22 10:50:05;;;;;;;7.63;3.45;;;16.20;99.90;;;;;;5092050;28;20561;-57
2023/03/22 10:52:56;;;;;;;5.53;3.53;;;16.30;99.90;;;;;;5092463;28;20093;-57
2023/03/22 10:55:23;;;;;;;9.32;3.40;;;16.40;99.90;;;;;;5084066;28;20040;-56
2023/03/22 10:58:11;;;;;;;10.75;3.85;;;16.50;99.90;;;;;;5092293;28;20040;-57
2023/03/22 11:00:50;;;;;;;7.73;3.60;;;16.60;99.90;;;;;;5090721;28;20114;-56
2023/03/22 11:03:30;;;;;;;5.07;3.67;;;16.60;99.90;;;;;;5092026;28;20048;-57
2023/03/22 11:06:12;;;;;;;8.07;2.92;;;16.70;99.90;;;;;;5091575;28;20051;-56
2023/03/22 11:08:51;;;;;;;6.25;2.90;;;16.70;99.60;;;;;;5086233;28;20055;-56
2023/03/22 11:11:31;;;;;;;5.05;2.63;;;16.70;97.50;;;;;;5083887;28;20067;-56
2023/03/22 11:14:05;;;;;;;6.53;2.65;;;16.40;96.40;;;;;;5091635;28;20055;-57
2023/03/22 11:16:43;;;;;;;5.15;3.15;;;16.50;98.10;;;;;;5091731;28;20273;-56
2023/03/22 11:19:23;;;;;;;5.18;3.25;;;16.70;97.90;;;;;;5082548;28;20555;-56
2023/03/22 11:21:50;;;;;;;3.47;2.85;;;16.80;98.60;;;;;;5091857;28;20044;-57
2023/03/22 11:24:20;;;;;;;4.38;2.65;;;17.10;98.00;;;;;;5091664;28;20066;-56
2023/03/22 11:27:18;;;;;;;4.38;2.33;;;17.30;96.50;;;;;;5091422;28;20106;-56
2023/03/22 11:29:47;;;;;;;3.88;1.95;;;17.30;95.00;;;;;;5082030;28;20495;-57
2023/03/22 11:32:34;;;;;;;6.60;2.20;;;17.40;94.50;;;;;;5091449;28;20044;-56
2023/03/22 11:35:17;;;;;;;4.65;1.90;;;17.50;93.30;;;;;;5091730;28;20484;-56
2023/03/22 11:37:52;;;;;;;4.20;1.42;;;17.60;92.40;;;;;;5085320;28;20044;-58
2023/03/22 11:40:27;;;;;;;2.15;1.42;;;17.60;89.60;;;;;;5076853;28;20340;-57
2023/03/22 11:43:00;;;;;;;2.22;1.55;;;17.60;88.40;;;;;;5080697;28;20048;-55
2023/03/22 11:45:34;;;;;;;3.05;1.80;;;17.70;88.00;;;;;;5083281;28;20052;-57
2023/03/22 11:48:11;;;;;;;4.20;1.70;;;17.80;86.70;;;;;;5089257;28;20043;-56
2023/03/22 11:50:41;;;;;;;4.32;2.33;;;17.90;86.00;;;;;;5070505;28;20044;-57
2023/03/22 11:53:15;;;;;;;4.88;2.47;;;18.10;88.60;;;;;;5078525;28;20032;-57
2023/03/22 11:55:44;;;;;;;3.25;1.63;;;18.10;86.10;;;;;;5091500;28;20036;-55
2023/03/22 11:58:26;;;;;;;1.95;1.67;;;18.20;84.80;;;;;;5091040;28;20047;-56
2023/03/22 12:01:00;;;;;;;2.75;1.90;;;18.20;82.10;;;;;;5091585;28;20539;-57
2023/03/22 12:03:35;;;;;;;1.38;1.27;;;18.10;83.30;;;;;;5080755;28;20097;-57
2023/03/22 12:06:18;;;;;;;3.63;1.90;;;18.20;81.90;;;;;;5073185;28;20044;-57
2023/03/22 12:08:50;;;;;;;4.72;2.00;;;18.10;83.70;;;;;;5077582;28;20463;-56
2023/03/22 12:11:33;;;;;;;3.92;1.65;;;18.10;83.60;;;;;;5091358;28;20179;-58
2023/03/22 12:14:18;;;;;;;2.17;1.25;;;18.20;79.20;;;;;;5090687;28;20044;-56
2023/03/22 12:16:59;;;;;;;2.88;1.23;;;18.30;79.20;;;;;;5089337;28;20098;-54
2023/03/22 12:19:50;;;;;;;4.80;0.80;;;18.40;77.70;;;;;;5090717;28;20077;-56
2023/03/22 12:22:49;;;;;;;1.60;1.05;;;18.50;76.50;;;;;;5090551;28;20122;-57
2023/03/22 12:25:28;;;;;;;2.10;1.05;;;18.60;76.20;;;;;;5087152;28;20086;-56
2023/03/22 12:28:00;;;;;;;1.42;0.98;;;18.70;76.50;;;;;;5079200;28;20395;-58
2023/03/22 12:30:33;;;;;;;0.85;0.80;;;18.70;75.10;;;;;;5070822;28;20090;-56
2023/03/22 12:33:10;;;;;;;1.48;1.17;;;18.70;72.80;;;;;;5086471;28;20437;-57
2023/03/22 12:35:42;;;;;;;1.02;0.88;;;18.90;73.20;;;;;;5091255;28;20123;-58
2023/03/22 12:38:34;;;;;;;1.23;1.00;;;18.90;70.10;;;;;;5090565;28;20434;-57
2023/03/22 12:41:05;;;;;;;1.67;0.82;;;19.00;71.60;;;;;;5089251;28;20052;-56
2023/03/22 12:43:47;;;;;;;0.98;0.68;;;19.00;69.60;;;;;;5077229;28;20090;-57
2023/03/22 12:46:19;;;;;;;3.63;0.70;;;19.10;68.10;;;;;;5090963;28;20048;-57
2023/03/22 12:48:50;;;;;;;1.40;0.63;;;19.20;66.90;;;;;;5090272;28;20407;-57
2023/03/22 12:51:17;;;;;;;3.65;1.00;;;19.40;65.70;;;;;;5090465;28;20042;-58
2023/03/22 12:53:49;;;;;;;1.20;0.90;;;19.50;66.30;;;;;;5081248;28;20396;-57
2023/03/22 12:56:19;;;;;;;2.67;1.00;;;19.50;68.20;;;;;;5090767;28;20040;-56
2023/03/22 12:58:48;;;;;;;2.55;0.85;;;19.50;68.50;;;;;;5092174;28;20040;-56
2023/03/22 13:01:42;;;;;;;1.30;0.70;;;19.50;66.60;;;;;;5094752;28;20040;-57
2023/03/22 13:04:35;;;;;;;1.10;0.93;;;19.70;66.00;;;;;;5084248;28;20082;-57
2023/03/22 13:07:29;;;;;;;1.75;1.08;;;19.70;66.40;;;;;;5094386;28;20047;-58
2023/03/22 13:10:00;;;;;;;4.63;1.85;;;19.70;67.30;;;;;;5089280;28;20098;-54
2023/03/22 13:12:31;;;;;;;7.25;2.42;;;19.60;74.40;;;;;;5094338;28;20047;-56
2023/03/22 13:15:22;;;;;;;3.17;2.35;;;19.50;79.10;;;;;;5100454;22;20094;-51
2023/03/22 13:17:57;;;;;;;5.00;2.03;;;19.50;80.20;;;;;;5081644;28;20467;-50
2023/03/22 13:20:27;;;;;;;4.85;2.40;;;19.30;79.60;;;;;;5084350;28;20040;-49
2023/03/22 13:22:54;;;;;;;4.65;2.90;;;19.20;79.30;;;;;;5084555;28;20492;-50
2023/03/22 13:25:25;;;;;;;4.20;2.50;;;19.20;81.00;;;;;;5091405;28;20404;-49
2023/03/22 13:28:03;;;;;;;3.80;3.00;;;19.10;81.80;;;;;;5094171;28;20048;-49
2023/03/22 13:30:51;;;;;;;3.83;2.75;;;19.10;85.40;;;;;;5097828;28;20425;-49
2023/03/22 13:33:28;;;;;;;2.47;2.28;;;19.00;81.80;;;;;;5114418;28;20039;-49